Time;durP1;ratioP1;P1;durP2;ratioP2;P2;SDS_P1;SDS_P2;PMS_P1;PMS_P2;Temp;Humidity;BMP_temperature;BMP_pressure;BME280_temperature;BME280_humidity;BME280_pressure;Samples;Min_cycle;Max_cycle;Signal;HPM_P1;HPM_P2
2021/01/06 00:00:58;;;;;;;14.98;6.30;;;15.00;62.90;;;;;;5015396;28;20085;-76
2021/01/06 00:03:27;;;;;;;12.77;5.72;;;15.00;63.10;;;;;;5016733;28;20460;-74
2021/01/06 00:05:57;;;;;;;13.88;5.47;;;14.90;62.90;;;;;;5010884;28;20030;-76
2021/01/06 00:08:24;;;;;;;11.38;5.80;;;14.90;63.10;;;;;;5018377;28;20113;-75
2021/01/06 00:10:56;;;;;;;7.88;4.65;;;14.80;63.10;;;;;;5018722;28;20036;-75
2021/01/06 00:13:23;;;;;;;14.55;5.50;;;14.80;63.00;;;;;;5018146;28;20440;-75
2021/01/06 00:15:50;;;;;;;12.15;5.40;;;14.70;62.90;;;;;;5015353;28;20368;-75
2021/01/06 00:18:17;;;;;;;11.75;6.70;;;14.70;63.10;;;;;;5017458;28;20068;-74
2021/01/06 00:20:44;;;;;;;14.82;6.32;;;14.60;63.60;;;;;;5016814;28;20034;-74
2021/01/06 00:23:12;;;;;;;12.48;4.85;;;14.60;63.50;;;;;;5016323;28;20029;-74
2021/01/06 00:25:42;;;;;;;15.35;4.10;;;14.60;63.80;;;;;;5007443;28;20407;-73
2021/01/06 00:28:11;;;;;;;8.57;4.40;;;14.50;63.80;;;;;;5005927;28;20042;-74
2021/01/06 00:30:47;;;;;;;14.18;6.35;;;14.40;64.00;;;;;;5010186;28;20097;-74
2021/01/06 00:33:17;;;;;;;11.90;4.18;;;14.30;64.40;;;;;;5012930;28;20436;-74
2021/01/06 00:35:49;;;;;;;10.43;4.03;;;14.20;64.50;;;;;;5007386;28;20026;-75
2021/01/06 00:38:16;;;;;;;8.98;3.92;;;14.10;64.80;;;;;;5018105;28;20192;-75
2021/01/06 00:40:44;;;;;;;13.65;5.38;;;14.10;64.60;;;;;;5015545;28;20030;-75
2021/01/06 00:43:13;;;;;;;18.10;6.72;;;14.00;64.80;;;;;;5032850;28;20041;-75
2021/01/06 00:45:40;;;;;;;14.25;6.90;;;14.00;64.90;;;;;;5034677;28;20498;-75
2021/01/06 00:48:07;;;;;;;10.02;4.35;;;13.90;64.80;;;;;;5015223;28;20085;-75
2021/01/06 00:50:34;;;;;;;14.38;4.63;;;13.80;64.90;;;;;;5007639;28;20064;-74
2021/01/06 00:53:06;;;;;;;9.43;5.15;;;13.80;64.80;;;;;;5014236;28;20045;-75
2021/01/06 00:55:32;;;;;;;15.38;5.68;;;13.70;64.50;;;;;;5019893;28;20355;-74
2021/01/06 00:57:59;;;;;;;17.17;5.68;;;13.60;64.60;;;;;;5008089;28;20396;-73
2021/01/06 01:00:28;;;;;;;11.27;5.63;;;13.50;64.60;;;;;;5014891;28;20069;-73
2021/01/06 01:02:55;;;;;;;10.68;5.43;;;13.50;64.60;;;;;;5013853;28;20033;-73
2021/01/06 01:05:25;;;;;;;16.10;5.68;;;13.40;64.60;;;;;;5031078;28;20108;-74
2021/01/06 01:07:52;;;;;;;16.88;5.65;;;13.20;64.70;;;;;;5038345;28;20451;-75
2021/01/06 01:10:35;;;;;;;14.10;7.78;;;13.20;65.30;;;;;;5015860;28;20080;-74
2021/01/06 01:13:04;;;;;;;24.15;6.78;;;13.20;64.70;;;;;;5013141;28;20018;-73
2021/01/06 01:15:32;;;;;;;22.83;6.78;;;13.20;64.80;;;;;;5007911;28;20087;-75
2021/01/06 01:17:59;;;;;;;16.88;7.80;;;13.10;65.00;;;;;;5009968;28;20383;-73
2021/01/06 01:20:26;;;;;;;16.95;6.30;;;12.80;65.50;;;;;;5014060;28;20367;-74
2021/01/06 01:22:53;;;;;;;22.08;6.85;;;12.70;66.20;;;;;;5000796;28;20460;-74
2021/01/06 01:25:23;;;;;;;13.70;5.88;;;12.50;66.10;;;;;;5016131;28;20041;-75
2021/01/06 01:27:50;;;;;;;17.30;8.57;;;12.60;66.40;;;;;;5018712;28;20037;-75
2021/01/06 01:30:20;;;;;;;18.60;6.63;;;12.70;66.00;;;;;;5010347;28;20053;-75
2021/01/06 01:32:47;;;;;;;18.30;7.15;;;12.70;66.00;;;;;;5016030;28;20472;-74
2021/01/06 01:35:19;;;;;;;11.10;6.70;;;12.70;65.60;;;;;;5015942;28;20802;-75
2021/01/06 01:37:47;;;;;;;14.75;7.30;;;12.70;65.90;;;;;;5009190;28;20037;-74
2021/01/06 01:40:21;;;;;;;14.05;6.60;;;12.70;66.50;;;;;;5010105;28;20109;-74
2021/01/06 01:43:05;;;;;;;16.63;7.25;;;12.60;65.90;;;;;;5015611;28;20108;-74
2021/01/06 01:46:06;;;;;;;21.30;9.18;;;12.60;66.60;;;;;;5016932;28;20025;-74
2021/01/06 01:48:44;;;;;;;14.50;6.85;;;12.50;66.70;;;;;;5015435;28;20037;-74
2021/01/06 01:51:33;;;;;;;13.65;6.63;;;12.40;66.50;;;;;;5012313;28;20105;-75
2021/01/06 01:54:06;;;;;;;16.00;7.05;;;12.40;66.90;;;;;;5013244;28;20105;-75
2021/01/06 01:57:04;;;;;;;13.43;6.47;;;12.50;67.30;;;;;;5025752;28;20090;-76
2021/01/06 01:59:43;;;;;;;22.88;8.40;;;12.60;66.80;;;;;;5010495;28;20037;-75
2021/01/06 02:02:35;;;;;;;16.73;8.00;;;12.40;66.90;;;;;;5019422;28;20344;-75
2021/01/06 02:05:28;;;;;;;18.35;6.85;;;12.40;67.20;;;;;;5008647;28;20018;-75
2021/01/06 02:08:16;;;;;;;16.63;6.88;;;12.30;67.20;;;;;;5014490;28;20126;-75
2021/01/06 02:10:52;;;;;;;17.73;7.57;;;12.30;67.40;;;;;;5009098;28;20036;-75
2021/01/06 02:13:31;;;;;;;19.88;8.43;;;12.30;67.10;;;;;;5011607;28;20368;-75
2021/01/06 02:16:03;;;;;;;23.00;9.32;;;12.10;68.00;;;;;;5012309;28;20030;-75
2021/01/06 02:18:29;;;;;;;;;;;12.10;67.80;;;;;;5012159;28;20030;-75
2021/01/06 02:21:15;;;;;;;25.73;7.55;;;12.00;68.20;;;;;;5014855;28;20000;-75
2021/01/06 02:23:43;;;;;;;14.95;7.38;;;12.10;68.30;;;;;;5011555;28;20026;-75
2021/01/06 02:26:10;;;;;;;17.25;6.20;;;12.20;68.10;;;;;;5005327;28;20034;-75
2021/01/06 02:28:37;;;;;;;18.60;7.50;;;12.00;68.00;;;;;;5008665;28;20032;-75
2021/01/06 02:31:04;;;;;;;16.75;7.05;;;11.80;68.60;;;;;;5013358;28;20022;-76
2021/01/06 02:33:32;;;;;;;18.25;7.68;;;11.90;69.20;;;;;;5009170;28;20140;-76
2021/01/06 02:35:59;;;;;;;17.17;7.40;;;12.00;69.20;;;;;;5013121;28;20084;-74
2021/01/06 02:38:26;;;;;;;19.25;8.63;;;12.10;68.60;;;;;;5011176;28;20029;-75
2021/01/06 02:40:56;;;;;;;16.23;7.00;;;12.00;69.10;;;;;;5011208;28;20033;-75
2021/01/06 02:43:24;;;;;;;18.30;7.10;;;11.90;69.00;;;;;;5008842;28;20040;-75
2021/01/06 02:45:51;;;;;;;15.43;7.18;;;12.00;68.80;;;;;;5018531;28;20351;-76
2021/01/06 02:48:19;;;;;;;15.02;7.20;;;12.00;68.90;;;;;;5015330;28;20026;-78
2021/01/06 02:50:48;;;;;;;21.00;8.23;;;12.10;68.80;;;;;;5014902;28;20084;-78
2021/01/06 02:53:24;;;;;;;15.43;8.27;;;12.00;68.60;;;;;;5015494;28;20030;-82
2021/01/06 02:55:52;;;;;;;12.45;7.15;;;12.00;69.00;;;;;;5031728;28;20073;-80
2021/01/06 02:58:24;;;;;;;14.82;6.18;;;11.90;69.30;;;;;;5013379;28;20037;-81
2021/01/06 03:00:54;;;;;;;;;;;11.90;69.40;;;;;;5019021;28;20129;-81
2021/01/06 03:03:25;;;;;;;15.23;6.53;;;11.90;69.20;;;;;;5014809;28;19924;-79
2021/01/06 03:06:10;;;;;;;18.40;6.93;;;11.80;69.20;;;;;;5015603;28;20040;-79
2021/01/06 03:08:38;;;;;;;16.45;6.43;;;11.80;69.60;;;;;;5011352;28;20025;-79
2021/01/06 03:11:09;;;;;;;12.02;6.43;;;11.80;69.50;;;;;;5013026;28;20030;-82
2021/01/06 03:13:36;;;;;;;12.98;5.88;;;11.70;69.80;;;;;;5040424;23;20325;-73
2021/01/06 03:16:03;;;;;;;15.40;6.22;;;11.70;69.90;;;;;;5005239;28;20034;-72
2021/01/06 03:18:30;;;;;;;15.80;6.20;;;11.60;69.50;;;;;;4992273;28;20475;-73
2021/01/06 03:21:03;;;;;;;11.00;5.82;;;11.50;70.10;;;;;;4993268;28;20041;-72
2021/01/06 03:23:53;;;;;;;20.42;7.10;;;11.40;70.20;;;;;;4987563;28;20062;-72
2021/01/06 03:26:24;;;;;;;12.65;6.40;;;11.30;70.50;;;;;;5001128;28;20081;-72
2021/01/06 03:28:52;;;;;;;13.10;6.10;;;11.30;70.50;;;;;;4987866;28;20448;-73
2021/01/06 03:31:42;;;;;;;11.23;5.97;;;11.40;70.50;;;;;;4990796;28;20076;-75
2021/01/06 03:34:21;;;;;;;15.75;5.78;;;11.10;70.40;;;;;;4991598;28;20026;-77
2021/01/06 03:37:03;;;;;;;19.38;6.80;;;11.00;70.50;;;;;;4989085;28;20030;-73
2021/01/06 03:39:37;;;;;;;17.33;6.38;;;11.00;70.60;;;;;;4987282;28;20105;-73
2021/01/06 03:42:04;;;;;;;8.43;5.65;;;10.90;70.50;;;;;;4992307;28;20105;-74
2021/01/06 03:44:31;;;;;;;8.20;5.18;;;10.80;71.20;;;;;;4985342;28;20524;-71
2021/01/06 03:47:22;;;;;;;12.57;5.20;;;10.70;71.70;;;;;;4984699;28;20062;-75
2021/01/06 03:50:04;;;;;;;11.60;7.25;;;10.70;71.70;;;;;;4991933;28;20448;-74
2021/01/06 03:52:59;;;;;;;10.60;6.38;;;10.70;71.60;;;;;;4990747;28;20456;-73
2021/01/06 03:55:53;;;;;;;16.90;8.10;;;10.70;71.30;;;;;;4994616;28;20027;-72
2021/01/06 03:58:50;;;;;;;16.20;5.68;;;10.80;71.20;;;;;;4992933;28;20109;-73
2021/01/06 04:01:47;;;;;;;13.07;6.05;;;10.70;71.60;;;;;;5012454;28;20044;-72
2021/01/06 04:04:41;;;;;;;15.35;6.55;;;10.60;71.70;;;;;;4991337;28;20026;-72
2021/01/06 04:07:28;;;;;;;17.05;7.80;;;10.60;71.50;;;;;;4989280;28;20022;-73
2021/01/06 04:10:15;;;;;;;8.43;5.25;;;10.60;71.00;;;;;;4990161;28;20473;-73
2021/01/06 04:12:42;;;;;;;12.07;6.38;;;10.50;71.60;;;;;;4993472;28;20076;-73
2021/01/06 04:15:12;;;;;;;12.48;5.53;;;10.40;71.50;;;;;;4993032;28;20026;-73
2021/01/06 04:17:51;;;;;;;10.02;4.97;;;10.40;71.80;;;;;;5008638;28;20117;-72
2021/01/06 04:20:26;;;;;;;7.97;5.65;;;10.30;72.10;;;;;;4997636;28;20461;-75
2021/01/06 04:22:58;;;;;;;12.13;6.68;;;10.20;72.10;;;;;;4990658;28;20037;-73
2021/01/06 04:25:31;;;;;;;14.07;6.20;;;10.20;71.80;;;;;;4991222;28;20114;-73
2021/01/06 04:28:09;;;;;;;15.85;7.13;;;10.30;71.70;;;;;;4995764;28;20034;-72
2021/01/06 04:30:40;;;;;;;21.25;7.38;;;10.30;71.00;;;;;;4994466;28;20121;-73
2021/01/06 04:33:41;;;;;;;18.08;6.43;;;10.40;71.10;;;;;;4991419;28;20034;-74
2021/01/06 04:36:15;;;;;;;13.52;6.20;;;10.40;70.80;;;;;;4994551;28;20097;-73
2021/01/06 04:38:46;;;;;;;19.73;7.53;;;10.30;71.10;;;;;;4990687;28;20030;-75
2021/01/06 04:41:43;;;;;;;22.92;8.10;;;10.30;71.10;;;;;;5009454;28;20410;-75
2021/01/06 04:44:49;;;;;;;8.73;6.20;;;10.20;71.40;;;;;;4993291;28;20045;-73
2021/01/06 04:47:30;;;;;;;10.15;6.30;;;10.00;71.90;;;;;;4991601;28;20507;-73
2021/01/06 04:50:29;;;;;;;8.52;6.45;;;9.90;72.80;;;;;;5003993;28;20088;-73
2021/01/06 04:53:05;;;;;;;8.90;5.10;;;9.90;72.50;;;;;;5002553;28;20033;-73
2021/01/06 04:56:01;;;;;;;9.32;4.97;;;9.90;73.00;;;;;;4995898;28;20080;-73
2021/01/06 04:58:54;;;;;;;18.40;8.05;;;9.80;73.00;;;;;;5009359;28;20437;-73
2021/01/06 05:01:48;;;;;;;20.95;7.55;;;9.90;72.70;;;;;;5006566;28;20034;-73
2021/01/06 05:04:41;;;;;;;14.15;6.45;;;9.90;72.30;;;;;;4992330;28;20468;-73
2021/01/06 05:07:44;;;;;;;8.88;5.00;;;10.00;72.10;;;;;;4984014;28;20045;-73
2021/01/06 05:10:38;;;;;;;12.73;5.75;;;9.90;72.80;;;;;;5006860;28;20027;-73
2021/01/06 05:13:17;;;;;;;6.47;5.20;;;9.80;72.90;;;;;;5003345;28;20022;-73
2021/01/06 05:15:54;;;;;;;9.00;5.50;;;9.80;73.00;;;;;;4987279;28;20039;-73
2021/01/06 05:18:21;;;;;;;12.43;6.32;;;9.80;73.00;;;;;;5009628;28;20356;-73
2021/01/06 05:20:47;;;;;;;15.57;6.30;;;9.80;73.10;;;;;;4991621;28;20030;-73
2021/01/06 05:23:19;;;;;;;12.35;6.45;;;9.80;72.30;;;;;;5009542;28;20140;-73
2021/01/06 05:25:46;;;;;;;14.30;6.82;;;9.80;72.80;;;;;;4993937;28;20022;-72
2021/01/06 05:28:16;;;;;;;16.45;6.15;;;9.80;72.30;;;;;;4995004;28;20026;-73
2021/01/06 05:30:44;;;;;;;13.55;7.00;;;9.80;72.60;;;;;;4991431;28;20026;-73
2021/01/06 05:33:17;;;;;;;15.52;5.53;;;9.80;72.70;;;;;;4994872;28;20018;-73
2021/01/06 05:35:47;;;;;;;11.82;6.65;;;9.80;72.90;;;;;;4995070;28;20061;-72
2021/01/06 05:38:13;;;;;;;23.65;7.25;;;9.90;72.20;;;;;;4993990;28;20049;-72
2021/01/06 05:40:43;;;;;;;14.25;5.68;;;10.10;72.00;;;;;;4993553;28;20033;-73
2021/01/06 05:43:29;;;;;;;16.83;6.10;;;10.00;72.10;;;;;;4989434;28;20069;-73
2021/01/06 05:46:02;;;;;;;11.35;5.45;;;9.90;72.20;;;;;;4994035;28;20476;-78
2021/01/06 05:48:38;;;;;;;19.20;5.57;;;10.00;72.30;;;;;;5021419;28;20022;-73
2021/01/06 05:51:34;;;;;;;18.77;6.55;;;10.00;72.10;;;;;;5001459;28;20028;-74
2021/01/06 05:54:20;;;;;;;11.13;5.20;;;10.20;72.20;;;;;;5003832;28;20113;-73
2021/01/06 05:56:52;;;;;;;19.33;5.38;;;10.30;72.50;;;;;;4995346;28;20030;-73
2021/01/06 05:59:54;;;;;;;;;;;10.30;72.60;;;;;;4992626;28;20034;-73
2021/01/06 06:02:33;;;;;;;16.80;5.10;;;10.20;72.70;;;;;;4994076;28;20336;-73
2021/01/06 06:05:40;;;;;;;13.57;5.68;;;10.10;72.90;;;;;;4996618;28;20042;-73
2021/01/06 06:08:48;;;;;;;13.77;4.85;;;10.20;72.90;;;;;;4992714;28;20030;-72
2021/01/06 06:11:51;;;;;;;9.52;4.32;;;10.20;73.00;;;;;;4980991;28;20030;-73
2021/01/06 06:14:24;;;;;;;13.20;4.60;;;10.10;73.60;;;;;;4990674;28;20034;-72
2021/01/06 06:17:20;;;;;;;18.13;5.78;;;10.10;73.30;;;;;;5009319;28;20030;-71
2021/01/06 06:20:16;;;;;;;13.00;4.90;;;10.10;73.20;;;;;;4959002;28;20488;-72
2021/01/06 06:23:02;;;;;;;10.85;3.63;;;10.20;72.70;;;;;;4991213;28;20121;-72
2021/01/06 06:25:32;;;;;;;9.88;4.00;;;9.90;73.50;;;;;;4987854;28;20037;-71
2021/01/06 06:28:37;;;;;;;12.23;3.95;;;9.90;74.10;;;;;;4987848;28;20085;-72
2021/01/06 06:31:33;;;;;;;16.77;4.82;;;9.90;73.30;;;;;;4996787;28;20070;-71
2021/01/06 06:34:09;;;;;;;12.88;3.92;;;10.00;73.10;;;;;;4981697;28;20182;-72
2021/01/06 06:36:46;;;;;;;5.90;3.90;;;9.80;73.50;;;;;;4990392;28;20030;-71
2021/01/06 06:39:30;;;;;;;9.77;4.47;;;9.80;73.40;;;;;;5003873;28;20030;-72
2021/01/06 06:42:19;;;;;;;7.63;3.40;;;9.70;73.50;;;;;;4988330;28;20029;-72
2021/01/06 06:45:24;;;;;;;10.95;5.57;;;9.60;73.50;;;;;;4993634;28;20026;-72
2021/01/06 06:47:50;;;;;;;10.77;3.60;;;9.70;73.10;;;;;;4990278;28;20038;-72
2021/01/06 06:50:49;;;;;;;6.80;3.58;;;9.60;73.20;;;;;;4994790;28;20365;-72
2021/01/06 06:53:33;;;;;;;13.63;4.63;;;9.60;73.40;;;;;;4997415;28;20457;-73
2021/01/06 06:56:08;;;;;;;11.38;3.53;;;9.60;73.00;;;;;;4999465;28;20414;-72
2021/01/06 06:58:49;;;;;;;13.68;3.47;;;9.50;73.30;;;;;;4990330;28;20034;-72
2021/01/06 07:01:20;;;;;;;8.02;4.45;;;9.40;73.30;;;;;;5003276;28;20038;-72
2021/01/06 07:04:04;;;;;;;12.25;4.22;;;9.50;73.00;;;;;;4994151;28;20022;-72
2021/01/06 07:06:32;;;;;;;11.02;4.15;;;9.60;72.80;;;;;;4993628;28;20022;-72
2021/01/06 07:09:01;;;;;;;13.70;4.35;;;9.60;72.60;;;;;;4994160;28;20022;-72
2021/01/06 07:11:43;;;;;;;12.60;4.88;;;9.50;72.70;;;;;;4993858;28;20030;-72
2021/01/06 07:14:27;;;;;;;9.68;4.18;;;9.60;72.70;;;;;;5025201;28;20518;-72
2021/01/06 07:16:57;;;;;;;13.18;4.63;;;9.50;72.40;;;;;;4997591;28;20472;-72
2021/01/06 07:19:24;;;;;;;9.02;3.78;;;9.40;72.80;;;;;;5011246;28;20474;-72
2021/01/06 07:22:19;;;;;;;11.73;3.67;;;9.30;73.00;;;;;;4998868;28;20028;-72
2021/01/06 07:24:55;;;;;;;14.35;4.22;;;9.30;73.20;;;;;;4997709;28;20034;-72
2021/01/06 07:27:22;;;;;;;8.57;4.63;;;9.30;73.50;;;;;;4996390;28;20349;-72
2021/01/06 07:29:51;;;;;;;8.30;4.55;;;9.30;73.20;;;;;;4999458;28;20026;-71
2021/01/06 07:32:22;;;;;;;21.67;5.53;;;9.20;73.30;;;;;;5019036;28;20037;-72
2021/01/06 07:34:54;;;;;;;9.55;4.72;;;9.40;73.30;;;;;;5011552;28;20029;-72
2021/01/06 07:37:47;;;;;;;15.48;6.00;;;9.50;73.00;;;;;;4998621;28;20471;-72
2021/01/06 07:40:28;;;;;;;10.45;4.30;;;9.50;73.10;;;;;;5009567;28;20088;-72
2021/01/06 07:43:20;;;;;;;16.75;4.93;;;9.40;72.70;;;;;;5003710;28;20037;-71
2021/01/06 07:45:49;;;;;;;14.65;4.72;;;9.40;73.00;;;;;;4997132;28;20033;-71
2021/01/06 07:48:16;;;;;;;14.30;4.22;;;9.30;72.90;;;;;;5018679;28;20037;-72
2021/01/06 07:51:02;;;;;;;12.10;4.95;;;9.30;73.00;;;;;;5005751;28;20037;-72
2021/01/06 07:53:44;;;;;;;11.23;4.30;;;9.20;73.50;;;;;;4982367;28;20342;-73
2021/01/06 07:56:32;;;;;;;12.00;4.63;;;9.10;73.70;;;;;;5001101;28;20105;-71
2021/01/06 07:58:59;;;;;;;13.50;4.65;;;9.00;74.10;;;;;;5008094;28;20033;-76
2021/01/06 08:01:45;;;;;;;15.73;4.53;;;9.00;74.30;;;;;;4993355;28;20026;-74
2021/01/06 08:04:37;;;;;;;5.55;4.25;;;9.00;74.20;;;;;;4995044;28;20034;-73
2021/01/06 08:07:07;;;;;;;12.82;4.28;;;8.90;74.30;;;;;;4996009;28;20030;-73
2021/01/06 08:09:38;;;;;;;15.50;5.00;;;9.00;73.70;;;;;;5020211;28;20032;-71
2021/01/06 08:12:33;;;;;;;15.40;5.40;;;9.00;73.50;;;;;;5013692;28;20125;-73
2021/01/06 08:15:31;;;;;;;11.68;4.18;;;8.90;73.60;;;;;;4994080;28;20042;-72
2021/01/06 08:18:08;;;;;;;18.80;5.30;;;8.90;74.10;;;;;;4990227;28;20050;-72
2021/01/06 08:20:51;;;;;;;16.52;5.95;;;8.90;74.10;;;;;;5005451;28;20030;-71
2021/01/06 08:23:25;;;;;;;8.63;5.25;;;8.90;74.00;;;;;;4996871;28;20034;-71
2021/01/06 08:26:01;;;;;;;14.25;5.25;;;9.00;74.00;;;;;;4996227;28;20492;-71
2021/01/06 08:28:30;;;;;;;16.67;5.78;;;8.90;74.00;;;;;;4998761;28;20036;-71
2021/01/06 08:31:21;;;;;;;10.70;4.88;;;8.90;73.80;;;;;;4998806;28;20184;-72
2021/01/06 08:33:53;;;;;;;14.25;5.85;;;8.80;73.70;;;;;;4996835;28;20036;-72
2021/01/06 08:36:53;;;;;;;17.67;5.38;;;8.90;73.70;;;;;;4989134;28;20382;-72
2021/01/06 08:39:23;;;;;;;15.25;6.32;;;8.90;74.00;;;;;;4997783;28;20361;-71
2021/01/06 08:41:51;;;;;;;12.23;5.78;;;8.90;74.00;;;;;;4998153;28;20018;-72
2021/01/06 08:44:32;;;;;;;11.43;6.03;;;8.80;73.90;;;;;;5005404;28;20467;-72
2021/01/06 08:47:02;;;;;;;13.77;5.22;;;8.90;74.00;;;;;;5009317;28;20033;-72
2021/01/06 08:49:37;;;;;;;18.13;6.60;;;8.90;73.70;;;;;;4999827;28;20032;-72
2021/01/06 08:52:20;;;;;;;16.88;6.13;;;9.00;73.60;;;;;;5001390;28;20045;-72
2021/01/06 08:54:58;;;;;;;11.75;6.10;;;8.80;73.60;;;;;;4990368;28;20049;-72
2021/01/06 08:57:36;;;;;;;19.23;7.35;;;8.80;74.00;;;;;;4996419;28;20079;-72
2021/01/06 09:00:21;;;;;;;15.02;7.40;;;8.80;74.00;;;;;;5001269;28;20068;-72
2021/01/06 09:03:16;;;;;;;20.50;8.52;;;8.80;74.50;;;;;;4992782;28;20504;-72
2021/01/06 09:05:42;;;;;;;27.10;9.23;;;8.90;75.20;;;;;;4985228;28;20108;-76
2021/01/06 09:08:20;;;;;;;19.20;7.72;;;9.20;75.10;;;;;;4997927;28;20448;-72
2021/01/06 09:11:01;;;;;;;21.67;8.75;;;9.30;74.00;;;;;;5006659;28;20329;-73
2021/01/06 09:13:35;;;;;;;14.63;8.15;;;9.30;73.90;;;;;;4996633;28;20816;-72
2021/01/06 09:16:14;;;;;;;23.63;8.40;;;9.20;74.40;;;;;;5000163;28;20031;-71
2021/01/06 09:19:16;;;;;;;20.75;8.80;;;9.00;75.00;;;;;;5014252;28;20105;-71
2021/01/06 09:21:43;;;;;;;29.80;9.63;;;9.10;75.00;;;;;;4997987;28;20042;-71
2021/01/06 09:24:16;;;;;;;19.40;8.52;;;9.10;75.70;;;;;;5017078;28;20027;-71
2021/01/06 09:26:46;;;;;;;25.92;11.07;;;9.00;75.30;;;;;;5000227;28;21265;-71
2021/01/06 09:29:16;;;;;;;17.17;7.53;;;9.00;75.20;;;;;;5014251;28;20197;-72
2021/01/06 09:31:49;;;;;;;23.83;7.70;;;9.00;74.90;;;;;;4997769;28;20113;-71
2021/01/06 09:34:28;;;;;;;24.92;8.32;;;9.00;75.20;;;;;;4999641;28;20022;-71
2021/01/06 09:36:57;;;;;;;28.45;9.70;;;8.90;75.20;;;;;;5001099;28;20121;-71
2021/01/06 09:39:27;;;;;;;35.75;10.15;;;9.00;75.60;;;;;;5001288;28;20058;-71
2021/01/06 09:41:57;;;;;;;18.23;9.10;;;9.10;75.20;;;;;;5006114;28;20021;-71
2021/01/06 09:44:23;;;;;;;19.92;10.10;;;9.10;75.10;;;;;;5015407;28;20021;-71
2021/01/06 09:46:56;;;;;;;31.17;10.73;;;9.20;75.10;;;;;;5011604;28;20053;-71
2021/01/06 09:49:47;;;;;;;22.20;9.38;;;9.40;74.20;;;;;;5010432;28;20477;-71
2021/01/06 09:52:38;;;;;;;23.25;10.15;;;9.50;74.10;;;;;;4997707;28;20033;-71
2021/01/06 09:55:07;;;;;;;22.58;9.70;;;9.50;73.50;;;;;;5000815;28;20056;-71
2021/01/06 09:57:33;;;;;;;40.60;10.80;;;9.30;74.20;;;;;;5012748;28;20061;-71
2021/01/06 10:00:18;;;;;;;23.33;9.32;;;9.10;74.50;;;;;;5002007;28;20027;-71
2021/01/06 10:02:49;;;;;;;23.00;9.65;;;9.00;74.80;;;;;;5009524;28;20038;-71
2021/01/06 10:05:43;;;;;;;28.73;9.33;;;9.00;74.70;;;;;;5010896;28;20372;-71
2021/01/06 10:08:20;;;;;;;17.73;7.93;;;9.10;74.30;;;;;;5002751;28;20033;-71
2021/01/06 10:10:50;;;;;;;27.70;9.43;;;9.10;74.00;;;;;;4997923;28;20033;-71
2021/01/06 10:13:45;;;;;;;22.00;9.30;;;9.00;74.40;;;;;;5009035;28;20022;-72
2021/01/06 10:16:30;;;;;;;32.45;9.75;;;9.10;74.90;;;;;;5008884;28;20026;-71
2021/01/06 10:19:41;;;;;;;21.13;10.23;;;9.20;75.30;;;;;;5002820;28;20031;-71
2021/01/06 10:22:24;;;;;;;25.60;10.73;;;9.40;74.80;;;;;;5009475;28;20468;-72
2021/01/06 10:25:32;;;;;;;30.33;11.35;;;9.40;74.30;;;;;;5012724;28;20033;-72
2021/01/06 10:28:04;;;;;;;25.52;10.77;;;9.40;74.30;;;;;;5008907;28;20056;-71
2021/01/06 10:30:33;;;;;;;23.88;9.70;;;9.30;74.20;;;;;;5004595;28;20362;-71
2021/01/06 10:33:14;;;;;;;14.98;8.50;;;9.30;74.40;;;;;;5003120;28;20034;-72
2021/01/06 10:35:43;;;;;;;30.75;10.07;;;9.30;74.20;;;;;;5006348;28;20085;-71
2021/01/06 10:38:30;;;;;;;23.58;9.75;;;9.20;74.60;;;;;;5010283;28;20030;-72
2021/01/06 10:41:20;;;;;;;21.00;7.97;;;9.20;74.60;;;;;;4998933;28;20389;-71
2021/01/06 10:43:52;;;;;;;18.58;9.32;;;9.10;75.00;;;;;;5002737;28;20054;-71
2021/01/06 10:46:42;;;;;;;17.02;9.02;;;9.10;74.60;;;;;;5005011;28;20069;-71
2021/01/06 10:49:20;;;;;;;23.83;8.10;;;9.20;74.50;;;;;;5044705;28;20176;-71
2021/01/06 10:51:59;;;;;;;23.35;9.38;;;9.20;74.50;;;;;;5005130;28;20084;-71
2021/01/06 10:54:45;;;;;;;20.08;8.73;;;9.20;74.70;;;;;;4992965;28;20014;-71
2021/01/06 10:57:26;;;;;;;16.23;6.38;;;9.10;74.60;;;;;;5017489;28;20028;-71
2021/01/06 11:00:20;;;;;;;20.05;8.13;;;8.90;75.20;;;;;;5000898;28;20026;-74
2021/01/06 11:03:23;;;;;;;20.83;8.55;;;8.90;74.90;;;;;;5004409;28;20444;-71
2021/01/06 11:05:52;;;;;;;17.30;7.65;;;8.70;75.30;;;;;;4993320;28;20117;-73
2021/01/06 11:08:44;;;;;;;15.50;6.47;;;8.70;75.50;;;;;;4993706;28;20057;-72
2021/01/06 11:11:30;;;;;;;10.80;6.38;;;8.80;75.10;;;;;;4997239;28;20025;-73
2021/01/06 11:14:31;;;;;;;14.13;5.88;;;8.90;74.90;;;;;;5004308;28;20541;-72
2021/01/06 11:17:19;;;;;;;19.33;8.82;;;8.90;74.90;;;;;;4992852;28;20065;-72
2021/01/06 11:19:45;;;;;;;16.95;7.75;;;8.80;74.80;;;;;;4996180;28;20066;-78
2021/01/06 11:22:20;;;;;;;18.92;8.80;;;8.70;75.30;;;;;;4995701;28;20058;-74
2021/01/06 11:24:52;;;;;;;14.73;8.52;;;8.70;75.90;;;;;;5004313;28;20033;-72
2021/01/06 11:27:43;;;;;;;23.05;8.55;;;8.90;74.40;;;;;;5002891;28;20030;-73
2021/01/06 11:30:38;;;;;;;22.10;7.47;;;8.90;74.20;;;;;;4995645;28;20471;-73
2021/01/06 11:33:17;;;;;;;20.50;8.13;;;8.90;74.10;;;;;;5006240;28;20104;-72
2021/01/06 11:36:24;;;;;;;18.20;8.40;;;8.60;74.50;;;;;;5005160;28;20034;-72
2021/01/06 11:38:55;;;;;;;18.55;7.90;;;8.50;75.20;;;;;;5002432;28;20103;-72
2021/01/06 11:41:27;;;;;;;17.67;6.25;;;8.40;75.70;;;;;;4992694;28;20531;-73
2021/01/06 11:43:57;;;;;;;;;;;8.30;75.50;;;;;;5026803;28;20038;-72
2021/01/06 11:46:26;;;;;;;10.95;6.22;;;8.30;75.50;;;;;;4998892;28;19913;-72
2021/01/06 11:49:21;;;;;;;12.77;6.68;;;8.50;75.20;;;;;;4995097;28;20030;-72
2021/01/06 11:52:25;;;;;;;15.75;7.85;;;8.50;74.40;;;;;;4988237;28;20062;-72
2021/01/06 11:55:00;;;;;;;14.25;8.98;;;8.50;74.60;;;;;;4994510;28;20373;-72
2021/01/06 11:57:30;;;;;;;15.82;8.63;;;8.60;74.50;;;;;;5004610;28;20026;-72
2021/01/06 12:00:35;;;;;;;19.77;8.32;;;8.30;74.60;;;;;;4993416;28;20398;-72
2021/01/06 12:03:07;;;;;;;18.63;7.95;;;8.20;74.80;;;;;;5009165;28;20022;-72
2021/01/06 12:06:05;;;;;;;22.65;9.18;;;8.20;75.00;;;;;;4994264;28;20110;-72
2021/01/06 12:08:59;;;;;;;19.02;7.70;;;8.20;74.70;;;;;;5016013;28;20042;-72
2021/01/06 12:11:51;;;;;;;24.88;10.50;;;8.20;75.00;;;;;;5000050;28;20029;-72
2021/01/06 12:15:08;;;;;;;18.55;9.80;;;8.20;75.20;;;;;;4991021;28;20042;-72
2021/01/06 12:17:47;;;;;;;27.75;12.05;;;8.20;75.80;;;;;;4998242;28;20088;-72
2021/01/06 12:20:27;;;;;;;20.73;12.35;;;8.50;75.50;;;;;;5007580;28;20019;-72
2021/01/06 12:23:14;;;;;;;15.23;9.40;;;8.50;75.10;;;;;;4995491;28;20356;-72
2021/01/06 12:25:53;;;;;;;22.95;10.13;;;8.50;74.80;;;;;;5016939;28;20113;-77
2021/01/06 12:28:44;;;;;;;16.98;9.32;;;8.50;75.00;;;;;;5000162;28;20026;-78
2021/01/06 12:31:24;;;;;;;16.48;8.05;;;8.40;75.10;;;;;;4987240;28;20464;-73
2021/01/06 12:34:23;;;;;;;24.95;8.45;;;8.30;75.50;;;;;;4992718;28;20053;-73
2021/01/06 12:37:11;;;;;;;21.17;8.32;;;8.40;75.20;;;;;;5029308;28;20023;-73
2021/01/06 12:39:39;;;;;;;20.88;8.82;;;8.20;75.80;;;;;;4993299;28;20038;-72
2021/01/06 12:42:18;;;;;;;24.20;9.82;;;8.20;75.70;;;;;;4999507;28;20032;-72
2021/01/06 12:45:11;;;;;;;15.15;6.32;;;8.20;75.70;;;;;;4996798;28;20530;-72
2021/01/06 12:48:00;;;;;;;18.15;6.57;;;8.10;75.30;;;;;;4999951;28;20364;-72
2021/01/06 12:50:38;;;;;;;18.58;8.70;;;8.20;75.70;;;;;;4997119;28;20023;-72
2021/01/06 12:53:17;;;;;;;21.50;9.02;;;8.30;75.80;;;;;;4995672;28;20696;-73
2021/01/06 12:56:04;;;;;;;23.60;9.65;;;8.10;76.30;;;;;;5009201;28;20360;-72
2021/01/06 12:58:47;;;;;;;15.90;8.50;;;8.00;76.50;;;;;;5011162;28;20464;-72
2021/01/06 13:01:34;;;;;;;13.40;6.85;;;8.10;76.80;;;;;;4987537;28;20088;-72
2021/01/06 13:04:05;;;;;;;14.30;5.68;;;8.00;76.40;;;;;;4996286;28;20041;-72
2021/01/06 13:06:31;;;;;;;11.77;7.13;;;8.10;76.10;;;;;;4999634;28;20038;-72
2021/01/06 13:09:27;;;;;;;21.45;7.97;;;8.20;76.30;;;;;;5003517;28;20034;-72
2021/01/06 13:12:05;;;;;;;19.23;7.18;;;8.20;75.40;;;;;;5007006;28;20033;-72
2021/01/06 13:14:34;;;;;;;12.07;7.55;;;8.10;75.70;;;;;;5000408;28;20022;-72
2021/01/06 13:17:03;;;;;;;16.98;8.55;;;8.10;76.10;;;;;;4996133;28;20026;-72
2021/01/06 13:19:32;;;;;;;19.52;8.18;;;8.10;76.50;;;;;;5009593;28;20388;-72
2021/01/06 13:22:24;;;;;;;19.50;7.75;;;8.20;75.70;;;;;;4995627;28;20444;-72
2021/01/06 13:25:27;;;;;;;17.40;7.40;;;8.10;75.80;;;;;;5000304;28;20059;-72
2021/01/06 13:27:59;;;;;;;13.10;5.90;;;8.00;76.00;;;;;;5001647;28;20026;-72
2021/01/06 13:30:35;;;;;;;12.02;6.70;;;8.00;76.00;;;;;;5001833;28;20037;-73
2021/01/06 13:33:18;;;;;;;16.67;5.82;;;7.90;76.00;;;;;;5031247;28;20034;-73
2021/01/06 13:35:59;;;;;;;10.10;5.60;;;7.90;76.20;;;;;;4990974;28;20113;-72
2021/01/06 13:38:27;;;;;;;15.02;6.70;;;7.90;76.00;;;;;;5009999;28;20072;-72
2021/01/06 13:40:57;;;;;;;9.85;5.35;;;8.00;75.60;;;;;;4999305;28;20052;-72
2021/01/06 13:43:32;;;;;;;14.88;6.10;;;8.00;75.40;;;;;;5011031;28;20096;-72
2021/01/06 13:46:30;;;;;;;14.98;6.03;;;7.90;75.50;;;;;;5030179;28;20631;-72